Dynawave — 3FEH6 — position and weather

sailwx.info

Track history (hours):
 
Tides and Currents Weather Stations Pressure Air Temp Water Temp Dewpoint Dewpoint Depression Visibility Wind Speed Wind Dir Waves Ship Positions

Dynawave

Last reported at 2014-Sep-11 16:30 UTC. Time now 2014-Sep-23 00:21 UTC.
Position S 26°16' E 154°09'.
Warning: this ship's position is 11 days out of date.

Length 209 m; draft 10.8 m.

Type: Cargo ship. MMSI: 356345000.

Date/timePositionNaut miles runAvg speedWind from/ knotsBaromVisibWave heightAir tempDewpointWater temp
2014-Sep-11 16:30S 26°16' E 154°09'1111.4
2014-Sep-11 15:32S 26°27' E 154°08'1111.3
2014-Sep-11 14:33S 26°38' E 154°06'1110.9
2014-Sep-11 13:33S 26°49' E 154°05'1111.0
2014-Sep-11 12:33S 27°00' E 154°04'1211.6
2014-Sep-11 11:33S 27°12' E 154°03'1211.5
2014-Sep-11 10:33S 27°23' E 154°02'1211.4
2014-Sep-11 09:29S 27°35' E 154°01'1011.2
2014-Sep-11 08:33S 27°46' E 153°59'1411.7
2014-Sep-11 07:19S 28°00' E 153°58'26310.9
2014-Sep-10 07:10S 32°17' E 152°57'1811.5
2014-Sep-10 05:33S 32°35' E 152°51'8 8.4
2014-Sep-10 04:33S 32°43' E 152°49'1010.2
2014-Sep-10 03:33S 32°50' E 152°40'1110.5
2014-Sep-10 02:32S 32°60' E 152°34'1010.0
2014-Sep-10 01:33S 33°08' E 152°28'9 9.3
2014-Sep-10 00:33S 33°17' E 152°23'52 9.8
2014-Sep-09 19:14S 34°03' E 151°54'6 9.1
2014-Sep-09 18:33S 34°08' E 151°51'9 9.2
2014-Sep-09 17:33S 34°16' E 151°46'10 9.9
2014-Sep-09 16:33S 34°25' E 151°40'1410.2
2014-Sep-09 15:14S 34°37' E 151°32'11 9.7
2014-Sep-09 14:09S 34°47' E 151°27'  
2014-Sep-05 04:22S 33°18' E 152°22'7 8.3
2014-Sep-05 03:33S 33°11' E 152°25'8 8.4
2014-Sep-05 02:33S 33°04' E 152°30'8 7.8
2014-Sep-05 01:33S 32°57' E 152°33'8 7.6
2014-Sep-05 00:33S 32°50' E 152°37'8 8.2
2014-Sep-04 23:33S 32°43' E 152°42'8 8.3
2014-Sep-04 22:33S 32°36' E 152°48'8 7.5
2014-Sep-04 21:32S 32°29' E 152°52'281 6.7
2014-Sep-03 03:33S 27°54' E 153°59'1211.9
2014-Sep-03 02:33S 27°42' E 154°00'  
Track history (hours):
 
Tides and Currents Weather Stations Pressure Air Temp Water Temp Dewpoint Dewpoint Depression Visibility Wind Speed Wind Dir Waves Ship Positions

Dynawave

Last reported at 2014-Sep-11 16:30 UTC. Time now 2014-Sep-23 00:21 UTC.
Position S 26°16' E 154°09'.
Warning: this ship's position is 11 days out of date.

Length 209 m; draft 10.8 m.

Type: Cargo ship. MMSI: 356345000.

Date/timePositionNaut miles runAvg speedWind from/ knotsBaromVisibWave heightAir tempDewpointWater temp
2014-Sep-11 16:30S 26°16' E 154°09'1111.4
2014-Sep-11 15:32S 26°27' E 154°08'1111.3
2014-Sep-11 14:33S 26°38' E 154°06'1110.9
2014-Sep-11 13:33S 26°49' E 154°05'1111.0
2014-Sep-11 12:33S 27°00' E 154°04'1211.6
2014-Sep-11 11:33S 27°12' E 154°03'1211.5
2014-Sep-11 10:33S 27°23' E 154°02'1211.4
2014-Sep-11 09:29S 27°35' E 154°01'1011.2
2014-Sep-11 08:33S 27°46' E 153°59'1411.7
2014-Sep-11 07:19S 28°00' E 153°58'26310.9
2014-Sep-10 07:10S 32°17' E 152°57'1811.5
2014-Sep-10 05:33S 32°35' E 152°51'8 8.4
2014-Sep-10 04:33S 32°43' E 152°49'1010.2
2014-Sep-10 03:33S 32°50' E 152°40'1110.5
2014-Sep-10 02:32S 32°60' E 152°34'1010.0
2014-Sep-10 01:33S 33°08' E 152°28'9 9.3
2014-Sep-10 00:33S 33°17' E 152°23'52 9.8
2014-Sep-09 19:14S 34°03' E 151°54'6 9.1
2014-Sep-09 18:33S 34°08' E 151°51'9 9.2
2014-Sep-09 17:33S 34°16' E 151°46'10 9.9
2014-Sep-09 16:33S 34°25' E 151°40'1410.2
2014-Sep-09 15:14S 34°37' E 151°32'11 9.7
2014-Sep-09 14:09S 34°47' E 151°27'  
2014-Sep-05 04:22S 33°18' E 152°22'7 8.3
2014-Sep-05 03:33S 33°11' E 152°25'8 8.4
2014-Sep-05 02:33S 33°04' E 152°30'8 7.8
2014-Sep-05 01:33S 32°57' E 152°33'8 7.6
2014-Sep-05 00:33S 32°50' E 152°37'8 8.2
2014-Sep-04 23:33S 32°43' E 152°42'8 8.3
2014-Sep-04 22:33S 32°36' E 152°48'8 7.5
2014-Sep-04 21:32S 32°29' E 152°52'281 6.7
2014-Sep-03 03:33S 27°54' E 153°59'1211.9
2014-Sep-03 02:33S 27°42' E 154°00'  

Dump ship's entire track history